Airport View

Enter AWOS ICAO identifier for current METAR.

ex. KFNL

KSAF 080453Z AUTO 24009KT 10SM FEW110 22/04 A3027 RMK AO2 SLP128 T02220044

8 Aug 2020 05:36

Phone: 505-474-3117

Other Area AWOS: KLAM - K0E0 - KCQC - KABQ

TAF KSAF 072326Z 0800/0824 24012G22KT P6SM BKN100 FM080200 27007KT P6SM BKN120 FM080700 02005KT P6SM BKN120 FM081400 34007KT P6SM SCT250 FM081900 26010G18KT P6SM SCT250